Главная страница
METAR-TAF:

METAR-TAF

Аэропорты :

Вадсё, Норвегия

широта: 70-04N, долгота: 029-51E, высота над уровнем моря: 3 м

Текущие метеонаблюдения

Эта сводка был подготовлена 23 минут назад, в 09:50 UTC
Ветер 4 Узел от западно-северо-западный
Температура 3°C
Влажность 75%
Давление 1017 hPa
Видимость 10 км и более
небольшая облачность на высоте 1200 фута
Рассеянная облачность на высоте 4500 фута

METAR: ENVD 210950Z 30004KT 9999 FEW012 BKN045 03/M01 Q1017

Время: 12:13 (10:13 UTC)

Прогноз

Эта сводка был подготовлена 2 часа и 13 минут назад, в 08:00 UTC
Прогноз действительный с 21-го 09 UTC до 21-го 13 UTC
Ветер 8 Узел от западный
Видимость 10 км и более
небольшая облачность на высоте 1200 фута
Рассеянная облачность на высоте 3000 фута, мощно-кучевые.
небольшие ливневые дожди
временами
С 21-го 09 UTC до 21-го 13 UTC
Рассеянная облачность на высоте 1200 фута

TAF: ENVD 210800Z 2109/2113 28008KT 9999 -SHRA FEW012 BKN030TCU TEMPO 2109/2113 BKN012

Метеонаблюдения и прогнозы для более 4000 аэропортов (сводки METAR и TAF).

Имеющиеся станции представлены на карте желтыми и красными точками.

Чтобы увидеть название станции, наведите на нее мышь.

Затем щелкните, чтобы увидеть метеонаблюдения и метеопрогнозы.

Управление картой: чтобы увеличить масштаб, щелкните зеленые кнопки с черным крестиком; чтобы уменьшить масштаб, щелкните зеленую кнопку с тире; для просмотра соседних карт щелкайте зеленые стрелки.


METAR-TAF: